Montague, CA

11:21 PM PDT on October 25, 2014 (GMT -0700)
Mount Shasta | Change Station
CLOSE
Current Station
Airport
Location: Mount Shasta,
Elevation: 3533 ft
Nearby Weather Stations

Elev 3533 ft 41.32 °N, 122.32 °W | Updated 2 minutes ago

Overcast
Overcast
42 °F
Feels Like 42 °F
N
0
Wind Variable Wind from North

Today
High -- | Low -- °F
--% Chance of Precip.
Yesterday
High -- | Low -- °F
Precip. -- in
7:30 AM 6:11 PM
Waxing Crescent, 6% visible
Pressure 30.06 in
Visibility 4.0 miles
Clouds Scattered Clouds 200 ft
Scattered Clouds 500 ft
Mostly Cloudy 4700 ft
Dew Point 41 °F
Humidity 96%
Rainfall 1.23 in
Snow Depth Not available.
UV 0 out of 12
Pollen .40 out of 12
Air Quality Not available.
Flu Activity Sporadic
SPECI KMHS 260619Z AUTO 00000KT 4SM BR SCT002 SCT005 BKN047 06/05 A3006 RMK AO2 T00560050

More Conditions Fewer Conditions

Pressure 30.06 in
Visibility 4.0 miles
Clouds Scattered Clouds 200 ft
Scattered Clouds 500 ft
Mostly Cloudy 4700 ft
Dew Point 41 °F
Humidity 96%
Rainfall 1.23 in
Snow Depth Not available.
UV 0 out of 12
Pollen .40 out of 12
Air Quality Not available.
Flu Activity Sporadic
SPECI KMHS 260619Z AUTO 00000KT 4SM BR SCT002 SCT005 BKN047 06/05 A3006 RMK AO2 T00560050

More Conditions Fewer Conditions

10-Day Weather Forecast

Almanac

Astronomy

Oct. 25, 2014 Rise Set
Actual Time 7:30 AM PDT 6:11 PM PDT
Civil Twilight 7:02 AM PDT 6:39 PM PDT
Nautical Twilight 6:30 AM PDT 7:12 PM PDT
Astronomical Twilight 5:57 AM PDT 7:44 PM PDT
Moon 9:15 AM PDT (10/25) 7:37 PM PDT (10/25)
Length of Visible Light 11h 37m
Length of Day
10h 40m
Tomorrow will be 2m 34s shorter.
Waxing Crescent, 6% of the Moon is Illuminated
Oct 26
Waxing Crescent
Oct 30
First Quarter
Nov 6
Full
Nov 14
Last Quarter
Nov 22
New

Community

WunderPhotos

Upload Photos

1,765,114 photos uploaded!

Nearby

Snow Depth

Station Depth Elevation
Adin Mountain 1 in 6200 ft
Crowder Flat 0 in 5100 ft
Independence Creek 0 in 6500 ft
Independence Camp 0 in 7000 ft
Independence Lake 3 in 8450 ft

Earthquake Activity

City Distance Mag. Time & Date
No recent earthquake activity has been reported nearby.
Minimum magnitude displayed is 2.5.

Coastal Water Temperatures

Place Temperature
No Stations Reporting

Nearby Weather Stations